Time;durP1;ratioP1;P1;durP2;ratioP2;P2;SDS_P1;SDS_P2;PMS_P1;PMS_P2;Temp;Humidity;BMP_temperature;BMP_pressure;BME280_temperature;BME280_humidity;BME280_pressure;Samples;Min_cycle;Max_cycle;Signal;HPM_P1;HPM_P2
2021/08/27 00:01:25;;;;;;;7.40;2.00;;;;;;;;;;7391416;19;20483;-57
2021/08/27 00:03:54;;;;;;;4.22;2.20;;;;;;;;;;7389363;19;20014;-55
2021/08/27 00:06:21;;;;;;;5.10;2.03;;;;;;;;;;7391229;19;20513;-53
2021/08/27 00:08:48;;;;;;;5.38;2.60;;;;;;;;;;7390416;19;20003;-58
2021/08/27 00:11:16;;;;;;;5.93;1.70;;;;;;;;;;7392100;19;20006;-58
2021/08/27 00:13:46;;;;;;;4.05;1.73;;;;;;;;;;7389138;19;20010;-58
2021/08/27 00:16:14;;;;;;;7.60;2.80;;;;;;;;;;7391560;19;20018;-52
2021/08/27 00:18:41;;;;;;;5.03;2.15;;;;;;;;;;7388323;19;20105;-59
2021/08/27 00:21:09;;;;;;;4.57;2.17;;;;;;;;;;7391025;19;20034;-54
2021/08/27 00:23:36;;;;;;;4.25;2.10;;;;;;;;;;7390538;19;20090;-59
2021/08/27 00:26:04;;;;;;;5.63;2.63;;;;;;;;;;7391084;19;20475;-58
2021/08/27 00:28:31;;;;;;;4.45;2.22;;;;;;;;;;7391281;19;20050;-59
2021/08/27 00:30:59;;;;;;;3.58;1.70;;;;;;;;;;7391388;19;20014;-58
2021/08/27 00:33:27;;;;;;;6.22;2.15;;;;;;;;;;7389573;19;20014;-58
2021/08/27 00:35:54;;;;;;;4.63;1.92;;;;;;;;;;7390241;19;20010;-56
2021/08/27 00:38:22;;;;;;;5.55;2.03;;;;;;;;;;7389665;19;20006;-50
2021/08/27 00:40:49;;;;;;;4.55;2.55;;;;;;;;;;7390285;19;20019;-57
2021/08/27 00:43:16;;;;;;;4.57;1.85;;;;;;;;;;7389800;19;20013;-56
2021/08/27 00:45:44;;;;;;;4.47;1.52;;;;;;;;;;7388717;19;20039;-45
2021/08/27 00:48:16;;;;;;;3.70;1.90;;;;;;;;;;7389442;19;20046;-52
2021/08/27 00:50:47;;;;;;;4.78;2.28;;;;;;;;;;7389591;19;20035;-58
2021/08/27 00:53:15;;;;;;;6.38;2.40;;;;;;;;;;7394795;19;20524;-56
2021/08/27 00:55:45;;;;;;;4.47;2.03;;;;;;;;;;7390057;19;20014;-59
2021/08/27 00:58:14;;;;;;;4.95;2.22;;;;;;;;;;7391516;19;20010;-53
2021/08/27 01:00:47;;;;;;;4.72;1.85;;;;;;;;;;7389835;19;20413;-48
2021/08/27 01:03:17;;;;;;;4.40;2.10;;;;;;;;;;7389882;19;20024;-56
2021/08/27 01:05:56;;;;;;;4.03;1.77;;;;;;;;;;7387612;19;20018;-57
2021/08/27 01:08:36;;;;;;;4.68;2.15;;;;;;;;;;7388449;19;20014;-54
2021/08/27 01:11:41;;;;;;;4.68;2.05;;;;;;;;;;7388913;19;20027;-60
2021/08/27 01:14:23;;;;;;;4.20;1.63;;;;;;;;;;7389317;19;20010;-59
2021/08/27 01:17:00;;;;;;;6.53;2.78;;;;;;;;;;7390046;19;20014;-51
2021/08/27 01:19:46;;;;;;;5.07;1.98;;;;;;;;;;7386821;19;20042;-53
2021/08/27 01:22:43;;;;;;;5.43;1.83;;;;;;;;;;7385502;19;20010;-60
2021/08/27 01:25:14;;;;;;;3.75;2.10;;;;;;;;;;7388113;19;20018;-48
2021/08/27 01:27:43;;;;;;;5.78;2.03;;;;;;;;;;7387952;19;20022;-52
2021/08/27 01:30:18;;;;;;;4.63;2.30;;;;;;;;;;7388165;19;20029;-49
2021/08/27 01:32:51;;;;;;;6.30;2.47;;;;;;;;;;7386857;19;20462;-58
2021/08/27 01:35:20;;;;;;;4.33;2.17;;;;;;;;;;7388734;19;20025;-58
2021/08/27 01:37:50;;;;;;;6.32;1.90;;;;;;;;;;7385981;19;20010;-51
2021/08/27 01:40:22;;;;;;;7.72;2.30;;;;;;;;;;7389029;19;20018;-55
2021/08/27 01:42:52;;;;;;;7.53;2.42;;;;;;;;;;7388480;19;20500;-55
2021/08/27 01:45:20;;;;;;;4.93;1.75;;;;;;;;;;7388288;19;20483;-55
2021/08/27 01:47:48;;;;;;;4.53;2.10;;;;;;;;;;7386619;19;20011;-49
2021/08/27 01:50:16;;;;;;;3.50;1.70;;;;;;;;;;7386509;19;20130;-51
2021/08/27 01:52:44;;;;;;;3.35;1.83;;;;;;;;;;7388741;19;20010;-57
2021/08/27 01:55:13;;;;;;;5.85;2.20;;;;;;;;;;7387956;19;20035;-50
2021/08/27 01:57:42;;;;;;;8.35;2.50;;;;;;;;;;7386091;19;20034;-55
2021/08/27 02:00:10;;;;;;;4.30;1.83;;;;;;;;;;7387377;19;20078;-53
2021/08/27 02:02:39;;;;;;;4.18;2.10;;;;;;;;;;7387504;19;20381;-57
2021/08/27 02:05:07;;;;;;;3.53;1.77;;;;;;;;;;7389367;19;20010;-51
2021/08/27 02:07:36;;;;;;;6.22;1.95;;;;;;;;;;7387495;19;20010;-48
2021/08/27 02:10:04;;;;;;;4.80;2.30;;;;;;;;;;7387551;19;20035;-58
2021/08/27 02:12:31;;;;;;;5.50;2.05;;;;;;;;;;7387774;19;20507;-58
2021/08/27 02:14:59;;;;;;;5.47;2.00;;;;;;;;;;7386137;19;20022;-45
2021/08/27 02:17:27;;;;;;;4.15;1.88;;;;;;;;;;7385918;19;20018;-45
2021/08/27 02:19:54;;;;;;;5.50;2.33;;;;;;;;;;7384120;19;20007;-59
2021/08/27 02:22:26;;;;;;;5.22;2.20;;;;;;;;;;7383521;19;20026;-53
2021/08/27 02:25:00;;;;;;;6.35;2.15;;;;;;;;;;7387052;19;20514;-58
2021/08/27 02:27:27;;;;;;;;;;;;;;;;;;7387549;19;20010;-58
2021/08/27 02:29:57;;;;;;;5.43;1.85;;;;;;;;;;7386015;19;19928;-58
2021/08/27 02:32:27;;;;;;;5.85;2.13;;;;;;;;;;7389128;19;20006;-58
2021/08/27 02:35:00;;;;;;;6.93;2.45;;;;;;;;;;7394103;19;20035;-58
2021/08/27 02:37:33;;;;;;;5.10;2.25;;;;;;;;;;7394037;19;20034;-57
2021/08/27 02:40:02;;;;;;;4.32;1.88;;;;;;;;;;7391829;19;20022;-54
2021/08/27 02:42:31;;;;;;;5.03;2.15;;;;;;;;;;7394040;19;20090;-58
2021/08/27 02:45:01;;;;;;;4.82;2.10;;;;;;;;;;7393286;19;20474;-58
2021/08/27 02:47:29;;;;;;;5.88;2.08;;;;;;;;;;7391511;19;20034;-58
2021/08/27 02:49:57;;;;;;;36.08;15.40;;;;;;;;;;7394180;19;20510;-57
2021/08/27 02:53:09;;;;;;;8.77;4.18;;;;;;;;;;7394127;19;20025;-55
2021/08/27 02:55:43;;;;;;;4.97;2.47;;;;;;;;;;7392344;19;20014;-55
2021/08/27 02:58:16;;;;;;;6.35;2.78;;;;;;;;;;7392060;19;20475;-60
2021/08/27 03:00:56;;;;;;;4.25;2.20;;;;;;;;;;7393605;19;20414;-57
2021/08/27 03:03:27;;;;;;;6.05;2.50;;;;;;;;;;7393689;19;20014;-60
2021/08/27 03:06:01;;;;;;;6.93;2.40;;;;;;;;;;7393300;19;20011;-59
2021/08/27 03:08:31;;;;;;;4.45;2.08;;;;;;;;;;7391773;19;20007;-51
2021/08/27 03:11:08;;;;;;;5.35;1.88;;;;;;;;;;7391267;19;20018;-56
2021/08/27 03:13:52;;;;;;;5.20;2.03;;;;;;;;;;7393391;19;20014;-53
2021/08/27 03:16:22;;;;;;;43.97;18.60;;;;;;;;;;7390966;19;20014;-65
2021/08/27 03:19:02;;;;;;;13.35;6.50;;;;;;;;;;7391588;19;20483;-53
2021/08/27 03:21:29;;;;;;;8.05;3.30;;;;;;;;;;7392698;19;20025;-53
2021/08/27 03:24:01;;;;;;;4.47;2.38;;;;;;;;;;7391827;19;20014;-60
2021/08/27 03:26:31;;;;;;;5.72;2.35;;;;;;;;;;7395206;19;20007;-57
2021/08/27 03:29:05;;;;;;;12.27;2.47;;;;;;;;;;7392123;19;20487;-60
2021/08/27 03:31:33;;;;;;;5.40;2.50;;;;;;;;;;7391795;19;20070;-48
2021/08/27 03:34:01;;;;;;;40.75;16.80;;;;;;;;;;7390909;19;20022;-55
2021/08/27 03:36:31;;;;;;;27.77;11.38;;;;;;;;;;7392818;19;20479;-60
2021/08/27 03:39:01;;;;;;;11.52;4.63;;;;;;;;;;7392173;19;20010;-47
2021/08/27 03:41:31;;;;;;;7.43;2.95;;;;;;;;;;7391957;19;20018;-61
2021/08/27 03:44:00;;;;;;;8.90;1.98;;;;;;;;;;7391513;19;20025;-48
2021/08/27 03:46:28;;;;;;;20.40;2.70;;;;;;;;;;7392033;19;20018;-54
2021/08/27 03:48:56;;;;;;;5.80;2.00;;;;;;;;;;7391793;19;20007;-61
2021/08/27 03:51:24;;;;;;;6.53;2.60;;;;;;;;;;7391784;19;20006;-60
2021/08/27 03:54:13;;;;;;;6.32;2.20;;;;;;;;;;7391080;19;20018;-58
2021/08/27 03:56:43;;;;;;;25.55;14.38;;;;;;;;;;7392251;19;20018;-58
2021/08/27 03:59:12;;;;;;;8.70;5.20;;;;;;;;;;7390115;19;20019;-61
2021/08/27 04:01:40;;;;;;;10.68;2.60;;;;;;;;;;7391890;19;20019;-58
2021/08/27 04:04:08;;;;;;;4.97;2.50;;;;;;;;;;7391517;19;20026;-59
2021/08/27 04:06:35;;;;;;;5.57;2.05;;;;;;;;;;7390717;19;20017;-52
2021/08/27 04:09:03;;;;;;;6.50;2.17;;;;;;;;;;7391852;19;20018;-53
2021/08/27 04:11:30;;;;;;;9.07;3.28;;;;;;;;;;7390369;19;20015;-60
2021/08/27 04:13:57;;;;;;;5.97;2.63;;;;;;;;;;7390644;19;20078;-53
2021/08/27 04:16:25;;;;;;;5.18;2.30;;;;;;;;;;7390188;19;20021;-47
2021/08/27 04:18:52;;;;;;;4.57;2.20;;;;;;;;;;7390178;19;20500;-51
2021/08/27 04:21:19;;;;;;;6.65;2.05;;;;;;;;;;7389474;19;20025;-53
2021/08/27 04:23:47;;;;;;;5.85;2.40;;;;;;;;;;7388618;19;20021;-55
2021/08/27 04:26:17;;;;;;;5.32;2.40;;;;;;;;;;7390894;19;20443;-52
2021/08/27 04:28:45;;;;;;;6.07;2.30;;;;;;;;;;7390799;19;20027;-57
2021/08/27 04:31:13;;;;;;;5.40;1.98;;;;;;;;;;7390631;19;20015;-54
2021/08/27 04:33:40;;;;;;;5.22;2.05;;;;;;;;;;7391279;19;20035;-47
2021/08/27 04:36:08;;;;;;;42.42;22.13;;;;;;;;;;7391668;19;20015;-58
2021/08/27 04:38:35;;;;;;;18.77;7.32;;;;;;;;;;7389578;19;20015;-66
2021/08/27 04:41:02;;;;;;;8.15;2.92;;;;;;;;;;7390686;19;20013;-53
2021/08/27 04:43:30;;;;;;;7.50;2.33;;;;;;;;;;7389096;19;20362;-56
2021/08/27 04:45:57;;;;;;;8.70;2.47;;;;;;;;;;7388402;19;20010;-58
2021/08/27 04:48:25;;;;;;;7.13;2.53;;;;;;;;;;7389420;19;20017;-60
2021/08/27 04:50:52;;;;;;;6.65;2.10;;;;;;;;;;7389635;19;20021;-55
2021/08/27 04:53:20;;;;;;;3.95;2.00;;;;;;;;;;7391413;19;20018;-52
2021/08/27 04:55:47;;;;;;;5.57;2.35;;;;;;;;;;7387421;19;20070;-48
2021/08/27 04:58:14;;;;;;;3.97;2.13;;;;;;;;;;7393858;19;20007;-58
2021/08/27 05:00:42;;;;;;;5.65;2.30;;;;;;;;;;7387328;19;20014;-51
2021/08/27 05:03:10;;;;;;;127.32;57.30;;;;;;;;;;7389329;19;20010;-60
2021/08/27 05:05:38;;;;;;;10.25;3.65;;;;;;;;;;7389351;19;20014;-60
2021/08/27 05:08:05;;;;;;;7.13;2.33;;;;;;;;;;7389107;19;20007;-60
2021/08/27 05:10:33;;;;;;;8.18;2.53;;;;;;;;;;7389093;19;20031;-54
2021/08/27 05:13:00;;;;;;;8.45;2.30;;;;;;;;;;7387501;19;20014;-47
2021/08/27 05:15:28;;;;;;;6.03;2.13;;;;;;;;;;7390142;19;20018;-59
2021/08/27 05:17:55;;;;;;;7.70;2.08;;;;;;;;;;7389171;19;20021;-59
2021/08/27 05:20:23;;;;;;;5.18;2.20;;;;;;;;;;7384222;19;20043;-50
2021/08/27 05:22:50;;;;;;;5.25;1.92;;;;;;;;;;7386568;19;20037;-56
2021/08/27 05:25:18;;;;;;;4.85;2.00;;;;;;;;;;7390303;19;20019;-52
2021/08/27 05:27:46;;;;;;;7.65;2.58;;;;;;;;;;7389332;19;20026;-55
2021/08/27 05:30:13;;;;;;;6.80;2.88;;;;;;;;;;7387648;19;20034;-48
2021/08/27 05:32:41;;;;;;;5.63;2.22;;;;;;;;;;7389261;19;20031;-59
2021/08/27 05:35:08;;;;;;;4.97;2.40;;;;;;;;;;7387070;19;20022;-60
2021/08/27 05:37:36;;;;;;;4.53;2.35;;;;;;;;;;7389628;19;20028;-47
2021/08/27 05:40:08;;;;;;;6.38;2.00;;;;;;;;;;7386742;19;20019;-50
2021/08/27 05:42:37;;;;;;;100.68;43.97;;;;;;;;;;7387784;19;20006;-62
2021/08/27 05:45:06;;;;;;;8.35;3.45;;;;;;;;;;7386997;19;20010;-57
2021/08/27 05:47:37;;;;;;;8.27;2.53;;;;;;;;;;7386970;19;20011;-57
2021/08/27 05:50:06;;;;;;;10.40;2.63;;;;;;;;;;7387536;19;20014;-56
2021/08/27 05:52:34;;;;;;;6.22;2.40;;;;;;;;;;7392033;19;20487;-58
2021/08/27 05:55:02;;;;;;;5.15;2.00;;;;;;;;;;7388205;19;20022;-59
2021/08/27 05:57:30;;;;;;;5.82;2.85;;;;;;;;;;7388895;19;20040;-47
2021/08/27 05:59:57;;;;;;;5.50;1.83;;;;;;;;;;7386927;19;20049;-58
2021/08/27 06:02:24;;;;;;;5.15;2.40;;;;;;;;;;7387227;19;20031;-56
2021/08/27 06:04:52;;;;;;;5.78;2.08;;;;;;;;;;7387277;19;20688;-57
2021/08/27 06:07:20;;;;;;;5.70;2.60;;;;;;;;;;7387877;19;20085;-52
2021/08/27 06:09:47;;;;;;;6.47;2.80;;;;;;;;;;7393386;19;20474;-59
2021/08/27 06:12:15;;;;;;;5.20;2.60;;;;;;;;;;7393717;19;20018;-52
2021/08/27 06:14:42;;;;;;;4.65;1.92;;;;;;;;;;7394773;19;20037;-58
2021/08/27 06:17:10;;;;;;;3.42;1.75;;;;;;;;;;7392670;19;20349;-56
2021/08/27 06:19:37;;;;;;;6.38;2.10;;;;;;;;;;7392375;19;20018;-58
2021/08/27 06:22:05;;;;;;;5.43;2.60;;;;;;;;;;7391094;19;20039;-57
2021/08/27 06:24:34;;;;;;;5.40;2.13;;;;;;;;;;7393348;19;20014;-52
2021/08/27 06:27:04;;;;;;;6.57;2.67;;;;;;;;;;7394415;19;20003;-48
2021/08/27 06:29:32;;;;;;;3.72;2.08;;;;;;;;;;7391966;19;20022;-54
2021/08/27 06:32:00;;;;;;;4.97;2.28;;;;;;;;;;7394202;19;20078;-47
2021/08/27 06:34:27;;;;;;;5.22;2.25;;;;;;;;;;7393220;19;20007;-58
2021/08/27 06:36:55;;;;;;;4.22;2.00;;;;;;;;;;7393547;19;20034;-51
2021/08/27 06:39:22;;;;;;;5.72;2.38;;;;;;;;;;7393146;19;20550;-56
2021/08/27 06:41:50;;;;;;;4.95;2.25;;;;;;;;;;7393707;19;20019;-59
2021/08/27 06:44:17;;;;;;;4.40;2.38;;;;;;;;;;7393348;19;20500;-48
2021/08/27 06:46:45;;;;;;;4.18;2.40;;;;;;;;;;7397109;19;20014;-58
2021/08/27 06:49:13;;;;;;;6.38;2.60;;;;;;;;;;7393800;19;20014;-50
2021/08/27 06:51:42;;;;;;;5.07;2.58;;;;;;;;;;7394546;19;20011;-59
2021/08/27 06:54:09;;;;;;;5.88;2.47;;;;;;;;;;7392788;19;20022;-53
2021/08/27 06:56:37;;;;;;;6.30;2.40;;;;;;;;;;7394387;19;20078;-59
2021/08/27 06:59:05;;;;;;;4.45;2.38;;;;;;;;;;7392242;19;20015;-59
2021/08/27 07:01:33;;;;;;;6.32;2.92;;;;;;;;;;7392339;19;20011;-54
2021/08/27 07:04:01;;;;;;;4.72;2.38;;;;;;;;;;7392088;19;20380;-54
2021/08/27 07:06:28;;;;;;;3.78;2.38;;;;;;;;;;7392466;19;20487;-53
2021/08/27 07:08:55;;;;;;;4.75;2.28;;;;;;;;;;7391969;19;20026;-59
2021/08/27 07:11:23;;;;;;;5.95;2.35;;;;;;;;;;7393807;19;20015;-49
2021/08/27 07:13:50;;;;;;;6.50;2.67;;;;;;;;;;7394631;19;20014;-53
2021/08/27 07:16:18;;;;;;;7.60;2.50;;;;;;;;;;7393552;19;20070;-59
2021/08/27 07:18:45;;;;;;;4.93;2.67;;;;;;;;;;7391329;19;20018;-58
2021/08/27 07:21:13;;;;;;;6.68;2.20;;;;;;;;;;7390187;19;20275;-59
2021/08/27 07:23:40;;;;;;;4.82;2.55;;;;;;;;;;7393653;19;20492;-58
2021/08/27 07:26:08;;;;;;;4.35;2.15;;;;;;;;;;7392164;19;20021;-57
2021/08/27 07:28:36;;;;;;;5.78;2.80;;;;;;;;;;7392992;19;20021;-59
2021/08/27 07:31:04;;;;;;;5.43;2.55;;;;;;;;;;7393085;19;20078;-59
2021/08/27 07:33:32;;;;;;;5.43;2.60;;;;;;;;;;7393387;19;20011;-59
2021/08/27 07:35:59;;;;;;;6.47;3.20;;;;;;;;;;7391447;19;20014;-50
2021/08/27 07:38:27;;;;;;;4.93;2.65;;;;;;;;;;7392649;19;20014;-59
2021/08/27 07:40:54;;;;;;;6.80;2.45;;;;;;;;;;7390074;19;20479;-59
2021/08/27 07:43:22;;;;;;;4.85;2.63;;;;;;;;;;7391314;19;20360;-60
2021/08/27 07:45:56;;;;;;;4.78;2.75;;;;;;;;;;7392482;19;20007;-55
2021/08/27 07:48:25;;;;;;;6.70;2.83;;;;;;;;;;7391047;19;20085;-51
2021/08/27 07:50:54;;;;;;;3.70;2.45;;;;;;;;;;7390648;19;20066;-54
2021/08/27 07:53:23;;;;;;;4.30;2.88;;;;;;;;;;7392067;19;20011;-55
2021/08/27 07:55:51;;;;;;;6.32;2.75;;;;;;;;;;7391084;19;20602;-47
2021/08/27 07:58:18;;;;;;;5.65;2.63;;;;;;;;;;7392631;19;20010;-56
2021/08/27 08:00:45;;;;;;;5.93;2.63;;;;;;;;;;7388893;19;20011;-54
2021/08/27 08:03:13;;;;;;;6.22;2.67;;;;;;;;;;7390403;19;20026;-49
2021/08/27 08:05:41;;;;;;;5.05;2.95;;;;;;;;;;7390521;19;20020;-52
2021/08/27 08:08:08;;;;;;;6.57;3.25;;;;;;;;;;7390393;19;20035;-57
2021/08/27 08:10:36;;;;;;;7.13;3.25;;;;;;;;;;7391946;19;20098;-56
2021/08/27 08:13:03;;;;;;;6.50;3.15;;;;;;;;;;7390474;19;20039;-51
2021/08/27 08:15:31;;;;;;;4.97;2.95;;;;;;;;;;7389309;19;20018;-56
2021/08/27 08:18:00;;;;;;;6.38;3.50;;;;;;;;;;7389461;19;20031;-56
2021/08/27 08:20:28;;;;;;;5.03;2.97;;;;;;;;;;7389622;19;20100;-57
2021/08/27 08:23:00;;;;;;;5.43;3.20;;;;;;;;;;7389988;19;20048;-59
2021/08/27 08:25:28;;;;;;;6.22;3.20;;;;;;;;;;7388995;19;20047;-59
2021/08/27 08:27:55;;;;;;;5.53;2.88;;;;;;;;;;7391150;19;20010;-49
2021/08/27 08:30:23;;;;;;;5.70;3.17;;;;;;;;;;7390038;19;20021;-51
2021/08/27 08:32:51;;;;;;;4.38;2.83;;;;;;;;;;7388087;19;20364;-56
2021/08/27 08:35:19;;;;;;;4.05;2.72;;;;;;;;;;7391397;19;20035;-59
2021/08/27 08:37:46;;;;;;;4.97;3.22;;;;;;;;;;7391118;19;20010;-52
2021/08/27 08:40:14;;;;;;;4.75;3.10;;;;;;;;;;7389298;19;20522;-60
2021/08/27 08:42:42;;;;;;;5.13;3.20;;;;;;;;;;7388713;19;20007;-59
2021/08/27 08:45:10;;;;;;;9.27;3.50;;;;;;;;;;7389683;19;20014;-51
2021/08/27 08:47:42;;;;;;;5.18;3.60;;;;;;;;;;7390122;19;20518;-58
2021/08/27 08:50:12;;;;;;;4.97;3.28;;;;;;;;;;7387104;19;20007;-50
2021/08/27 08:52:41;;;;;;;4.32;2.90;;;;;;;;;;7393941;19;20014;-58
2021/08/27 08:55:10;;;;;;;5.50;3.35;;;;;;;;;;7387970;19;20015;-59
2021/08/27 08:57:37;;;;;;;5.43;3.53;;;;;;;;;;7390607;19;20035;-58
2021/08/27 09:00:07;;;;;;;5.00;3.50;;;;;;;;;;7390389;19;20015;-57
2021/08/27 09:02:34;;;;;;;8.05;4.10;;;;;;;;;;7389355;19;20010;-59
2021/08/27 09:05:03;;;;;;;5.75;3.35;;;;;;;;;;7386284;19;20483;-51
2021/08/27 09:07:30;;;;;;;7.13;2.63;;;;;;;;;;7387819;19;20021;-53
2021/08/27 09:09:58;;;;;;;4.72;3.13;;;;;;;;;;7389585;19;20007;-57
2021/08/27 09:12:27;;;;;;;5.30;3.00;;;;;;;;;;7388887;19;20114;-53
2021/08/27 09:15:09;;;;;;;5.47;2.75;;;;;;;;;;7386597;19;20010;-59
2021/08/27 09:17:43;;;;;;;5.95;3.35;;;;;;;;;;7389718;19;20040;-58
2021/08/27 09:20:11;;;;;;;;;;;;;;;;;;7389331;19;20081;-60
2021/08/27 09:22:56;;;;;;;7.07;3.60;;;;;;;;;;7391323;19;19915;-57
2021/08/27 09:25:29;;;;;;;4.13;2.78;;;;;;;;;;7388585;19;20044;-53
2021/08/27 09:28:04;;;;;;;4.47;3.17;;;;;;;;;;7387326;19;20015;-48
2021/08/27 09:30:37;;;;;;;5.25;2.92;;;;;;;;;;7387515;19;20090;-56
2021/08/27 09:33:22;;;;;;;4.65;2.72;;;;;;;;;;7388769;19;20027;-48
2021/08/27 09:36:11;;;;;;;6.03;2.67;;;;;;;;;;7389520;19;20347;-58
2021/08/27 09:38:41;;;;;;;4.22;3.10;;;;;;;;;;7388310;19;20093;-52
2021/08/27 09:41:10;;;;;;;4.75;3.00;;;;;;;;;;7387018;19;20033;-58
2021/08/27 09:43:46;;;;;;;4.68;2.90;;;;;;;;;;7386601;19;20017;-51
2021/08/27 09:46:37;;;;;;;10.18;3.20;;;;;;;;;;7388463;19;20030;-59
2021/08/27 09:49:24;;;;;;;5.15;2.92;;;;;;;;;;7387784;19;20014;-50
2021/08/27 09:51:53;;;;;;;4.65;2.67;;;;;;;;;;7391661;19;20053;-54
2021/08/27 09:54:30;;;;;;;4.07;2.47;;;;;;;;;;7388962;19;20013;-59
2021/08/27 09:57:00;;;;;;;7.40;2.92;;;;;;;;;;7388619;19;20007;-57
2021/08/27 09:59:39;;;;;;;3.70;2.17;;;;;;;;;;7386391;19;20034;-55
2021/08/27 10:02:09;;;;;;;4.68;2.03;;;;;;;;;;7387116;19;20014;-52
2021/08/27 10:04:59;;;;;;;3.72;2.10;;;;;;;;;;7387094;19;20482;-56
2021/08/27 10:07:35;;;;;;;8.52;2.55;;;;;;;;;;7389126;19;20019;-54
2021/08/27 10:10:05;;;;;;;6.05;2.80;;;;;;;;;;7387242;19;20359;-54
2021/08/27 10:12:35;;;;;;;3.70;2.17;;;;;;;;;;7386233;19;20015;-48
2021/08/27 10:15:04;;;;;;;5.10;2.28;;;;;;;;;;7385725;19;20483;-48
2021/08/27 10:17:35;;;;;;;3.72;2.17;;;;;;;;;;7387517;19;20014;-53
2021/08/27 10:20:04;;;;;;;5.68;2.67;;;;;;;;;;7386668;19;20086;-50
2021/08/27 10:22:32;;;;;;;4.60;2.22;;;;;;;;;;7385927;19;20025;-49
2021/08/27 10:25:05;;;;;;;4.13;2.65;;;;;;;;;;7388506;19;20021;-53
2021/08/27 10:27:34;;;;;;;4.18;2.20;;;;;;;;;;7387745;19;20482;-51
2021/08/27 10:30:04;;;;;;;4.10;2.38;;;;;;;;;;7388143;19;20090;-54
2021/08/27 10:32:41;;;;;;;3.70;1.95;;;;;;;;;;7385107;19;20018;-52
2021/08/27 10:35:32;;;;;;;3.50;2.10;;;;;;;;;;7388691;19;20491;-54
2021/08/27 10:37:59;;;;;;;4.07;2.13;;;;;;;;;;7384627;19;20471;-58
2021/08/27 10:40:27;;;;;;;4.00;2.30;;;;;;;;;;7386542;19;20015;-51
2021/08/27 10:42:58;;;;;;;3.80;2.13;;;;;;;;;;7387007;19;20478;-58
2021/08/27 10:45:41;;;;;;;3.25;2.15;;;;;;;;;;7386575;19;20079;-58
2021/08/27 10:48:18;;;;;;;4.22;2.70;;;;;;;;;;7387619;19;20036;-58
2021/08/27 10:50:48;;;;;;;3.70;2.30;;;;;;;;;;7386147;19;20015;-59
2021/08/27 10:53:19;;;;;;;5.65;3.00;;;;;;;;;;7392136;19;20003;-59
2021/08/27 10:55:47;;;;;;;3.75;2.28;;;;;;;;;;7391550;19;20022;-59
2021/08/27 10:58:18;;;;;;;3.15;2.00;;;;;;;;;;7395593;19;20046;-52
2021/08/27 11:00:51;;;;;;;4.57;2.65;;;;;;;;;;7393254;19;20015;-58
2021/08/27 11:03:21;;;;;;;4.88;2.72;;;;;;;;;;7394619;19;20014;-55
2021/08/27 11:05:50;;;;;;;4.40;2.50;;;;;;;;;;7394779;19;20018;-48
2021/08/27 11:08:38;;;;;;;3.38;2.17;;;;;;;;;;7391504;19;20014;-54
2021/08/27 11:11:08;;;;;;;4.05;2.42;;;;;;;;;;7394359;19;20021;-58
2021/08/27 11:13:38;;;;;;;3.90;2.30;;;;;;;;;;7393653;19;20015;-59
2021/08/27 11:16:22;;;;;;;3.65;2.20;;;;;;;;;;7391846;19;20014;-49
2021/08/27 11:18:53;;;;;;;3.63;2.30;;;;;;;;;;7393741;19;20832;-54
2021/08/27 11:21:39;;;;;;;3.45;1.98;;;;;;;;;;7391699;19;20019;-51
2021/08/27 11:24:17;;;;;;;4.60;2.25;;;;;;;;;;7390417;19;20483;-59
2021/08/27 11:26:56;;;;;;;3.53;2.35;;;;;;;;;;7392582;19;20025;-59
2021/08/27 11:29:41;;;;;;;3.63;1.85;;;;;;;;;;7392320;19;20014;-51
2021/08/27 11:32:21;;;;;;;2.80;1.67;;;;;;;;;;7391934;19;20010;-52
2021/08/27 11:34:50;;;;;;;2.40;1.45;;;;;;;;;;7392254;19;20227;-54
2021/08/27 11:37:18;;;;;;;2.85;1.75;;;;;;;;;;7391182;19;20459;-51
2021/08/27 11:39:47;;;;;;;4.78;1.80;;;;;;;;;;7395596;19;20017;-57
2021/08/27 11:42:21;;;;;;;3.70;1.80;;;;;;;;;;7389566;19;20538;-59
2021/08/27 11:45:20;;;;;;;3.15;1.80;;;;;;;;;;7392003;19;20006;-59
2021/08/27 11:47:52;;;;;;;4.93;1.88;;;;;;;;;;7392002;19;20014;-58
2021/08/27 11:50:34;;;;;;;2.65;1.52;;;;;;;;;;7391298;19;20010;-57
2021/08/27 11:53:03;;;;;;;4.22;2.30;;;;;;;;;;7396353;19;20037;-50
2021/08/27 11:55:39;;;;;;;2.22;1.50;;;;;;;;;;7390941;19;20010;-52
2021/08/27 11:58:06;;;;;;;3.97;2.17;;;;;;;;;;7390854;19;20014;-48
2021/08/27 12:00:35;;;;;;;3.58;1.70;;;;;;;;;;7389960;19;20018;-55
2021/08/27 12:03:03;;;;;;;3.03;1.90;;;;;;;;;;7392559;19;20018;-55
2021/08/27 12:05:31;;;;;;;3.42;1.83;;;;;;;;;;7389188;19;20478;-59
2021/08/27 12:08:07;;;;;;;3.03;1.70;;;;;;;;;;7391765;19;20007;-52
2021/08/27 12:10:37;;;;;;;3.00;1.70;;;;;;;;;;7392084;19;20006;-49
2021/08/27 12:13:06;;;;;;;3.28;1.70;;;;;;;;;;7391467;19;20014;-55
2021/08/27 12:15:40;;;;;;;6.15;1.67;;;;;;;;;;7391225;19;20018;-49
2021/08/27 12:18:09;;;;;;;3.15;1.85;;;;;;;;;;7388955;19;20019;-60
2021/08/27 12:20:39;;;;;;;3.40;1.90;;;;;;;;;;7390216;19;20482;-59
2021/08/27 12:23:12;;;;;;;3.30;1.85;;;;;;;;;;7389759;19;20561;-51
2021/08/27 12:25:45;;;;;;;206.85;128.68;;;;;;;;;;7389268;19;20502;-53
2021/08/27 12:28:39;;;;;;;40.33;22.10;;;;;;;;;;7391147;19;20022;-53
2021/08/27 12:31:07;;;;;;;4.90;2.30;;;;;;;;;;7388601;19;20010;-57
2021/08/27 12:33:56;;;;;;;3.47;2.05;;;;;;;;;;7391490;19;20042;-52
2021/08/27 12:36:24;;;;;;;3.85;1.75;;;;;;;;;;7390939;19;20018;-58
2021/08/27 12:38:53;;;;;;;4.35;1.85;;;;;;;;;;7389945;19;20025;-60
2021/08/27 12:41:21;;;;;;;5.80;1.80;;;;;;;;;;7390216;19;20015;-55
2021/08/27 12:43:50;;;;;;;2.88;1.70;;;;;;;;;;7390098;19;20007;-52
2021/08/27 12:46:45;;;;;;;4.80;2.00;;;;;;;;;;7387113;19;20006;-53
2021/08/27 12:49:17;;;;;;;3.42;1.95;;;;;;;;;;7387971;19;20014;-58
2021/08/27 12:51:47;;;;;;;28.52;15.00;;;;;;;;;;7391634;19;20206;-52
2021/08/27 12:54:16;;;;;;;13.23;6.40;;;;;;;;;;7389587;19;20529;-49
2021/08/27 12:57:07;;;;;;;22.50;9.32;;;;;;;;;;7386470;19;20014;-55
2021/08/27 12:59:35;;;;;;;7.57;3.15;;;;;;;;;;7388110;19;20390;-54
2021/08/27 13:02:14;;;;;;;4.32;1.80;;;;;;;;;;7386790;19;20011;-59
2021/08/27 13:04:44;;;;;;;5.32;1.98;;;;;;;;;;7388680;19;20014;-56
2021/08/27 13:07:32;;;;;;;7.05;1.73;;;;;;;;;;7390165;19;20114;-59
2021/08/27 13:10:20;;;;;;;7.43;2.13;;;;;;;;;;7387913;19;20010;-57
2021/08/27 13:12:47;;;;;;;2.97;1.77;;;;;;;;;;7390018;19;20123;-59
2021/08/27 13:15:27;;;;;;;2.63;1.70;;;;;;;;;;7392538;19;20086;-58
2021/08/27 13:18:04;;;;;;;2.90;1.73;;;;;;;;;;7386270;19;20035;-52
2021/08/27 13:20:34;;;;;;;2.50;1.40;;;;;;;;;;7387118;19;20010;-52
2021/08/27 13:23:31;;;;;;;2.63;1.80;;;;;;;;;;7388487;19;20014;-59
2021/08/27 13:26:00;;;;;;;3.22;1.63;;;;;;;;;;7386423;19;20318;-57
2021/08/27 13:28:30;;;;;;;3.63;1.67;;;;;;;;;;7388179;19;20011;-50
2021/08/27 13:30:58;;;;;;;2.85;1.40;;;;;;;;;;7387454;19;20015;-60
2021/08/27 13:33:25;;;;;;;25.45;17.30;;;;;;;;;;7387060;19;20022;-58
2021/08/27 13:35:53;;;;;;;23.35;13.02;;;;;;;;;;7388664;19;20027;-50
2021/08/27 13:38:20;;;;;;;7.35;2.75;;;;;;;;;;7388370;19;20240;-58
2021/08/27 13:40:48;;;;;;;2.88;1.73;;;;;;;;;;7388897;19;20483;-59
2021/08/27 13:43:15;;;;;;;5.03;1.98;;;;;;;;;;7386651;19;20010;-58
2021/08/27 13:45:44;;;;;;;4.50;1.55;;;;;;;;;;7389284;19;20015;-59
2021/08/27 13:48:12;;;;;;;5.05;1.92;;;;;;;;;;7387151;19;20010;-59
2021/08/27 13:50:41;;;;;;;3.45;1.70;;;;;;;;;;7387815;19;20011;-53
2021/08/27 13:53:08;;;;;;;3.70;1.83;;;;;;;;;;7392601;19;20086;-60
2021/08/27 13:55:37;;;;;;;3.05;1.80;;;;;;;;;;7385290;19;20479;-57
2021/08/27 13:58:05;;;;;;;4.15;1.67;;;;;;;;;;7388228;19;20736;-56
2021/08/27 14:00:33;;;;;;;3.00;1.80;;;;;;;;;;7385944;19;20039;-59
2021/08/27 14:03:01;;;;;;;5.47;1.80;;;;;;;;;;7387178;19;20062;-57
2021/08/27 14:05:29;;;;;;;2.92;1.67;;;;;;;;;;7386166;19;20035;-52
2021/08/27 14:07:56;;;;;;;3.60;1.60;;;;;;;;;;7385808;19;20018;-49
2021/08/27 14:10:24;;;;;;;6.40;1.90;;;;;;;;;;7387396;19;20255;-51
2021/08/27 14:12:52;;;;;;;3.08;1.70;;;;;;;;;;7386900;19;20010;-51
2021/08/27 14:15:20;;;;;;;4.18;2.15;;;;;;;;;;7389066;19;20088;-51
2021/08/27 14:17:47;;;;;;;3.45;1.85;;;;;;;;;;7386383;19;20097;-56
2021/08/27 14:20:15;;;;;;;3.25;1.90;;;;;;;;;;7386188;19;20018;-52
2021/08/27 14:22:45;;;;;;;5.43;1.70;;;;;;;;;;7384938;19;20014;-52
2021/08/27 14:25:14;;;;;;;3.60;1.85;;;;;;;;;;7387817;19;20014;-52
2021/08/27 14:27:42;;;;;;;3.03;1.80;;;;;;;;;;7386531;19;20015;-52
2021/08/27 14:30:12;;;;;;;6.20;2.00;;;;;;;;;;7395113;19;20543;-50
2021/08/27 14:32:42;;;;;;;3.20;1.77;;;;;;;;;;7394926;19;20082;-51
2021/08/27 14:35:11;;;;;;;4.07;1.77;;;;;;;;;;7395551;19;20018;-51
2021/08/27 14:37:40;;;;;;;5.22;1.88;;;;;;;;;;7394752;19;20047;-55
2021/08/27 14:40:10;;;;;;;3.35;1.80;;;;;;;;;;7396167;19;20010;-53
2021/08/27 14:42:38;;;;;;;4.57;2.22;;;;;;;;;;7390846;19;20007;-55
2021/08/27 14:45:06;;;;;;;2.95;1.77;;;;;;;;;;7392142;19;20018;-56
2021/08/27 14:47:34;;;;;;;7.32;2.30;;;;;;;;;;7394625;19;20018;-59
2021/08/27 14:50:03;;;;;;;2.60;1.63;;;;;;;;;;7393158;19;20010;-49
2021/08/27 14:52:31;;;;;;;3.88;1.77;;;;;;;;;;7396386;19;20010;-52
2021/08/27 14:54:59;;;;;;;3.38;2.17;;;;;;;;;;7392756;19;20011;-57
2021/08/27 14:57:28;;;;;;;2.92;1.80;;;;;;;;;;7390503;19;20070;-59
2021/08/27 14:59:56;;;;;;;11.43;6.28;;;;;;;;;;7393113;19;20018;-55
2021/08/27 15:02:24;;;;;;;11.20;5.70;;;;;;;;;;7395889;19;20006;-57
2021/08/27 15:04:51;;;;;;;4.38;2.50;;;;;;;;;;7393508;19;20033;-56